sensor_id;sensor_type;location;lat;lon;timestamp;pressure;altitude;pressure_sealevel;temperature;humidity
73024;BME280;61199;47.526;8.538;2023-07-28T00:02:15;95896.25;;;20.90;65.75
73024;BME280;61199;47.526;8.538;2023-07-28T00:04:42;95896.25;;;20.90;65.69
73024;BME280;61199;47.526;8.538;2023-07-28T00:07:08;95891.94;;;20.89;65.65
73024;BME280;61199;47.526;8.538;2023-07-28T00:09:34;95883.97;;;20.89;65.24
73024;BME280;61199;47.526;8.538;2023-07-28T00:12:01;95882.31;;;20.88;65.82
73024;BME280;61199;47.526;8.538;2023-07-28T00:14:28;95882.72;;;20.85;66.00
73024;BME280;61199;47.526;8.538;2023-07-28T00:16:56;95877.03;;;20.75;65.75
73024;BME280;61199;47.526;8.538;2023-07-28T00:19:23;95877.88;;;20.69;65.98
73024;BME280;61199;47.526;8.538;2023-07-28T00:21:50;95876.63;;;20.71;66.04
73024;BME280;61199;47.526;8.538;2023-07-28T00:24:18;95874.41;;;20.68;66.48
73024;BME280;61199;47.526;8.538;2023-07-28T00:26:44;95870.72;;;20.63;66.46
73024;BME280;61199;47.526;8.538;2023-07-28T00:29:11;95867.28;;;20.56;66.65
73024;BME280;61199;47.526;8.538;2023-07-28T00:31:37;95860.72;;;20.52;66.84
73024;BME280;61199;47.526;8.538;2023-07-28T00:34:04;95849.66;;;20.55;66.65
73024;BME280;61199;47.526;8.538;2023-07-28T00:36:31;95857.03;;;20.53;66.55
73024;BME280;61199;47.526;8.538;2023-07-28T00:38:58;95849.03;;;20.59;66.00
73024;BME280;61199;47.526;8.538;2023-07-28T00:41:24;95860.69;;;20.58;66.44
73024;BME280;61199;47.526;8.538;2023-07-28T00:43:51;95865.84;;;20.53;66.40
73024;BME280;61199;47.526;8.538;2023-07-28T00:46:17;95872.44;;;20.25;66.42
73024;BME280;61199;47.526;8.538;2023-07-28T00:48:44;95875.31;;;20.23;66.27
73024;BME280;61199;47.526;8.538;2023-07-28T00:51:11;95885.75;;;20.25;66.10
73024;BME280;61199;47.526;8.538;2023-07-28T00:53:38;95880.81;;;19.96;66.39
73024;BME280;61199;47.526;8.538;2023-07-28T00:56:05;95886.34;;;19.94;66.12
73024;BME280;61199;47.526;8.538;2023-07-28T00:58:32;95889.00;;;19.88;65.31
73024;BME280;61199;47.526;8.538;2023-07-28T01:00:59;95881.63;;;19.90;65.00
73024;BME280;61199;47.526;8.538;2023-07-28T01:03:25;95877.56;;;20.00;64.81
73024;BME280;61199;47.526;8.538;2023-07-28T01:06:08;95877.19;;;20.10;65.28
73024;BME280;61199;47.526;8.538;2023-07-28T01:11:32;95863.47;;;20.13;66.55
73024;BME280;61199;47.526;8.538;2023-07-28T01:13:58;95863.88;;;20.16;66.10
73024;BME280;61199;47.526;8.538;2023-07-28T01:16:25;95869.19;;;20.23;66.04
73024;BME280;61199;47.526;8.538;2023-07-28T01:18:51;95863.69;;;20.18;66.39
73024;BME280;61199;47.526;8.538;2023-07-28T01:21:26;95859.78;;;20.14;66.48
73024;BME280;61199;47.526;8.538;2023-07-28T01:26:59;95872.66;;;19.97;67.61
73024;BME280;61199;47.526;8.538;2023-07-28T01:29:25;95860.16;;;19.98;66.83
73024;BME280;61199;47.526;8.538;2023-07-28T01:31:52;95860.38;;;19.90;67.33
73024;BME280;61199;47.526;8.538;2023-07-28T01:34:18;95861.19;;;19.90;66.78
73024;BME280;61199;47.526;8.538;2023-07-28T01:36:45;95863.25;;;19.95;67.27
73024;BME280;61199;47.526;8.538;2023-07-28T01:39:11;95854.66;;;19.99;67.10
73024;BME280;61199;47.526;8.538;2023-07-28T01:41:37;95858.34;;;19.98;66.86
73024;BME280;61199;47.526;8.538;2023-07-28T01:44:06;95858.94;;;20.00;66.55
73024;BME280;61199;47.526;8.538;2023-07-28T01:46:32;95857.50;;;19.98;66.56
73024;BME280;61199;47.526;8.538;2023-07-28T01:48:59;95853.41;;;19.89;66.84
73024;BME280;61199;47.526;8.538;2023-07-28T01:51:25;95849.75;;;19.83;67.11
73024;BME280;61199;47.526;8.538;2023-07-28T01:53:52;95864.47;;;19.86;66.75
73024;BME280;61199;47.526;8.538;2023-07-28T01:56:18;95864.91;;;19.83;66.95
73024;BME280;61199;47.526;8.538;2023-07-28T01:58:45;95865.28;;;19.93;67.29
73024;BME280;61199;47.526;8.538;2023-07-28T02:01:12;95869.78;;;19.92;67.32
73024;BME280;61199;47.526;8.538;2023-07-28T02:03:39;95883.50;;;19.83;67.70
73024;BME280;61199;47.526;8.538;2023-07-28T02:06:05;95878.38;;;19.81;67.60
73024;BME280;61199;47.526;8.538;2023-07-28T02:08:32;95888.22;;;19.81;67.85
73024;BME280;61199;47.526;8.538;2023-07-28T02:10:58;95882.25;;;19.79;67.47
73024;BME280;61199;47.526;8.538;2023-07-28T02:13:24;95892.28;;;19.70;67.46
73024;BME280;61199;47.526;8.538;2023-07-28T02:15:51;95898.81;;;19.68;67.58
73024;BME280;61199;47.526;8.538;2023-07-28T02:18:17;95888.41;;;19.73;67.36
73024;BME280;61199;47.526;8.538;2023-07-28T02:20:44;95894.09;;;19.70;67.22
73024;BME280;61199;47.526;8.538;2023-07-28T02:23:10;95894.72;;;19.59;67.12
73024;BME280;61199;47.526;8.538;2023-07-28T02:25:38;95895.97;;;19.63;67.51
73024;BME280;61199;47.526;8.538;2023-07-28T02:28:06;95911.28;;;19.54;67.96
73024;BME280;61199;47.526;8.538;2023-07-28T02:30:32;95921.69;;;19.49;68.03
73024;BME280;61199;47.526;8.538;2023-07-28T02:32:59;95922.91;;;19.47;67.85
73024;BME280;61199;47.526;8.538;2023-07-28T02:35:25;95933.53;;;19.40;68.13
73024;BME280;61199;47.526;8.538;2023-07-28T02:37:52;95930.66;;;19.42;68.22
73024;BME280;61199;47.526;8.538;2023-07-28T02:40:18;95944.16;;;19.47;68.50
73024;BME280;61199;47.526;8.538;2023-07-28T02:42:45;95950.88;;;19.43;68.17
73024;BME280;61199;47.526;8.538;2023-07-28T02:45:11;95953.16;;;19.46;68.51
73024;BME280;61199;47.526;8.538;2023-07-28T02:47:37;95953.16;;;19.52;68.13
73024;BME280;61199;47.526;8.538;2023-07-28T02:50:04;95949.91;;;19.50;68.20
73024;BME280;61199;47.526;8.538;2023-07-28T02:52:31;95964.00;;;19.51;67.99
73024;BME280;61199;47.526;8.538;2023-07-28T02:54:57;95961.94;;;19.53;68.12
73024;BME280;61199;47.526;8.538;2023-07-28T02:57:24;95950.50;;;19.52;67.78
73024;BME280;61199;47.526;8.538;2023-07-28T02:59:50;95955.63;;;19.54;67.48
73024;BME280;61199;47.526;8.538;2023-07-28T03:02:16;95968.69;;;19.55;67.65
73024;BME280;61199;47.526;8.538;2023-07-28T03:04:43;95956.44;;;19.48;67.73
73024;BME280;61199;47.526;8.538;2023-07-28T03:07:09;95968.88;;;19.47;67.49
73024;BME280;61199;47.526;8.538;2023-07-28T03:09:35;95967.06;;;19.48;67.02
73024;BME280;61199;47.526;8.538;2023-07-28T03:12:02;95967.84;;;19.48;67.77
73024;BME280;61199;47.526;8.538;2023-07-28T03:14:29;95969.06;;;19.39;67.95
73024;BME280;61199;47.526;8.538;2023-07-28T03:16:55;95967.00;;;19.35;68.29
73024;BME280;61199;47.526;8.538;2023-07-28T03:19:22;95966.63;;;19.38;67.91
73024;BME280;61199;47.526;8.538;2023-07-28T03:21:48;95970.69;;;19.34;68.00
73024;BME280;61199;47.526;8.538;2023-07-28T03:24:14;95973.09;;;19.22;68.47
73024;BME280;61199;47.526;8.538;2023-07-28T03:26:41;95967.09;;;19.14;69.02
73024;BME280;61199;47.526;8.538;2023-07-28T03:29:07;95976.75;;;19.21;68.54
73024;BME280;61199;47.526;8.538;2023-07-28T03:31:34;95973.47;;;19.19;68.81
73024;BME280;61199;47.526;8.538;2023-07-28T03:34:03;95972.09;;;19.30;68.42
73024;BME280;61199;47.526;8.538;2023-07-28T03:36:30;95976.00;;;19.34;68.44
73024;BME280;61199;47.526;8.538;2023-07-28T03:38:56;95977.16;;;19.18;68.62
73024;BME280;61199;47.526;8.538;2023-07-28T03:41:22;95981.19;;;19.08;69.37
73024;BME280;61199;47.526;8.538;2023-07-28T03:43:49;95981.38;;;19.06;69.64
73024;BME280;61199;47.526;8.538;2023-07-28T03:46:15;95980.03;;;18.83;71.09
73024;BME280;61199;47.526;8.538;2023-07-28T03:48:42;95978.69;;;19.00;70.29
73024;BME280;61199;47.526;8.538;2023-07-28T03:51:08;95968.53;;;19.10;70.27
73024;BME280;61199;47.526;8.538;2023-07-28T03:53:35;95962.38;;;19.09;70.04
73024;BME280;61199;47.526;8.538;2023-07-28T03:56:02;95965.34;;;19.21;69.44
73024;BME280;61199;47.526;8.538;2023-07-28T03:58:29;95966.59;;;19.31;69.19
73024;BME280;61199;47.526;8.538;2023-07-28T04:00:55;95965.16;;;19.29;69.14
73024;BME280;61199;47.526;8.538;2023-07-28T04:03:22;95961.31;;;19.38;69.04
73024;BME280;61199;47.526;8.538;2023-07-28T04:05:49;95971.69;;;19.33;69.18
73024;BME280;61199;47.526;8.538;2023-07-28T04:08:15;95964.94;;;19.30;69.45
73024;BME280;61199;47.526;8.538;2023-07-28T04:10:42;95974.34;;;19.33;69.07
73024;BME280;61199;47.526;8.538;2023-07-28T04:13:08;95982.50;;;19.25;68.78
73024;BME280;61199;47.526;8.538;2023-07-28T04:15:35;95990.53;;;19.38;68.99
73024;BME280;61199;47.526;8.538;2023-07-28T04:18:01;95986.63;;;19.34;68.44
73024;BME280;61199;47.526;8.538;2023-07-28T04:20:28;95979.81;;;19.18;69.28
73024;BME280;61199;47.526;8.538;2023-07-28T04:22:54;95987.88;;;19.04;70.01
73024;BME280;61199;47.526;8.538;2023-07-28T04:25:21;95989.16;;;18.74;71.13
73024;BME280;61199;47.526;8.538;2023-07-28T04:27:47;95987.34;;;18.47;72.68
73024;BME280;61199;47.526;8.538;2023-07-28T04:30:14;95989.53;;;18.71;71.37
73024;BME280;61199;47.526;8.538;2023-07-28T04:32:40;95982.84;;;18.75;71.57
73024;BME280;61199;47.526;8.538;2023-07-28T04:35:07;95988.03;;;18.89;70.55
73024;BME280;61199;47.526;8.538;2023-07-28T04:37:33;95989.06;;;18.95;70.60
73024;BME280;61199;47.526;8.538;2023-07-28T04:40:00;95983.56;;;18.96;70.68
73024;BME280;61199;47.526;8.538;2023-07-28T04:42:26;95976.25;;;19.05;70.33
73024;BME280;61199;47.526;8.538;2023-07-28T04:44:53;95975.66;;;19.09;70.57
73024;BME280;61199;47.526;8.538;2023-07-28T04:47:19;95981.00;;;19.16;70.31
73024;BME280;61199;47.526;8.538;2023-07-28T04:49:46;95988.81;;;19.24;70.13
73024;BME280;61199;47.526;8.538;2023-07-28T04:52:12;95986.91;;;19.11;70.08
73024;BME280;61199;47.526;8.538;2023-07-28T04:54:39;95988.94;;;19.09;70.65
73024;BME280;61199;47.526;8.538;2023-07-28T04:57:05;95994.88;;;19.11;71.12
73024;BME280;61199;47.526;8.538;2023-07-28T04:59:32;95995.25;;;19.08;71.41
73024;BME280;61199;47.526;8.538;2023-07-28T05:01:58;96001.16;;;19.04;71.77
73024;BME280;61199;47.526;8.538;2023-07-28T05:04:24;96002.75;;;18.92;72.15
73024;BME280;61199;47.526;8.538;2023-07-28T05:06:51;95999.50;;;18.96;72.13
73024;BME280;61199;47.526;8.538;2023-07-28T05:09:17;96013.72;;;18.89;72.59
73024;BME280;61199;47.526;8.538;2023-07-28T05:11:44;96012.56;;;18.98;71.76
73024;BME280;61199;47.526;8.538;2023-07-28T05:14:14;96016.63;;;18.94;71.96
73024;BME280;61199;47.526;8.538;2023-07-28T05:16:40;96009.72;;;18.99;71.28
73024;BME280;61199;47.526;8.538;2023-07-28T05:19:07;96006.03;;;19.00;71.89
73024;BME280;61199;47.526;8.538;2023-07-28T05:21:36;96005.03;;;19.01;71.52
73024;BME280;61199;47.526;8.538;2023-07-28T05:24:02;96011.34;;;19.00;71.30
73024;BME280;61199;47.526;8.538;2023-07-28T05:26:29;96011.38;;;19.07;70.74
73024;BME280;61199;47.526;8.538;2023-07-28T05:28:55;96010.59;;;19.13;70.41
73024;BME280;61199;47.526;8.538;2023-07-28T05:31:22;96013.06;;;19.08;70.66
73024;BME280;61199;47.526;8.538;2023-07-28T05:33:48;96011.22;;;19.15;70.19
73024;BME280;61199;47.526;8.538;2023-07-28T05:36:15;96005.28;;;19.13;70.25
73024;BME280;61199;47.526;8.538;2023-07-28T05:38:42;96007.75;;;19.14;70.38
73024;BME280;61199;47.526;8.538;2023-07-28T05:41:08;96007.00;;;19.20;70.45
73024;BME280;61199;47.526;8.538;2023-07-28T05:43:34;96011.50;;;19.20;70.38
73024;BME280;61199;47.526;8.538;2023-07-28T05:46:01;96013.41;;;19.32;70.41
73024;BME280;61199;47.526;8.538;2023-07-28T05:48:28;96014.88;;;19.41;70.16
73024;BME280;61199;47.526;8.538;2023-07-28T05:50:54;96017.75;;;19.53;69.61
73024;BME280;61199;47.526;8.538;2023-07-28T05:53:21;96016.53;;;19.55;69.37
73024;BME280;61199;47.526;8.538;2023-07-28T05:55:47;96012.06;;;19.56;69.47
73024;BME280;61199;47.526;8.538;2023-07-28T05:58:14;96016.38;;;19.63;69.36
73024;BME280;61199;47.526;8.538;2023-07-28T06:00:41;96024.34;;;19.70;68.70
73024;BME280;61199;47.526;8.538;2023-07-28T06:03:11;96026.03;;;19.77;68.62
73024;BME280;61199;47.526;8.538;2023-07-28T06:05:39;96013.72;;;19.70;68.79
73024;BME280;61199;47.526;8.538;2023-07-28T06:08:06;96019.47;;;19.80;68.49
73024;BME280;61199;47.526;8.538;2023-07-28T06:10:33;96008.88;;;19.93;68.33
73024;BME280;61199;47.526;8.538;2023-07-28T06:13:00;96014.84;;;20.08;67.77
73024;BME280;61199;47.526;8.538;2023-07-28T06:15:26;96026.91;;;20.04;67.92
73024;BME280;61199;47.526;8.538;2023-07-28T06:17:53;96029.59;;;20.04;67.52
73024;BME280;61199;47.526;8.538;2023-07-28T06:20:19;96030.00;;;20.14;67.51
73024;BME280;61199;47.526;8.538;2023-07-28T06:22:46;96021.63;;;20.36;67.22
73024;BME280;61199;47.526;8.538;2023-07-28T06:25:12;96027.16;;;20.48;67.40
73024;BME280;61199;47.526;8.538;2023-07-28T06:27:38;96028.19;;;20.60;66.60
73024;BME280;61199;47.526;8.538;2023-07-28T06:30:05;96025.72;;;20.65;66.29
73024;BME280;61199;47.526;8.538;2023-07-28T06:32:32;96029.63;;;20.82;65.84
73024;BME280;61199;47.526;8.538;2023-07-28T06:34:59;96038.81;;;20.99;65.75
73024;BME280;61199;47.526;8.538;2023-07-28T06:37:25;96034.69;;;21.09;65.22
73024;BME280;61199;47.526;8.538;2023-07-28T06:39:51;96044.09;;;21.24;64.98
73024;BME280;61199;47.526;8.538;2023-07-28T06:42:18;96049.19;;;21.32;64.57
73024;BME280;61199;47.526;8.538;2023-07-28T06:44:50;96044.28;;;21.29;64.62
73024;BME280;61199;47.526;8.538;2023-07-28T06:47:18;96036.50;;;21.21;64.90
73024;BME280;61199;47.526;8.538;2023-07-28T06:49:44;96038.56;;;21.26;64.84
73024;BME280;61199;47.526;8.538;2023-07-28T06:52:10;96040.59;;;21.30;64.44
73024;BME280;61199;47.526;8.538;2023-07-28T06:54:37;96035.88;;;21.32;64.02
73024;BME280;61199;47.526;8.538;2023-07-28T06:57:05;96035.47;;;21.22;64.08
73024;BME280;61199;47.526;8.538;2023-07-28T06:59:32;96047.94;;;21.41;63.84
73024;BME280;61199;47.526;8.538;2023-07-28T07:01:59;96042.97;;;21.51;63.85
73024;BME280;61199;47.526;8.538;2023-07-28T07:04:26;96044.88;;;21.38;63.47
73024;BME280;61199;47.526;8.538;2023-07-28T07:06:52;96042.59;;;21.41;63.58
73024;BME280;61199;47.526;8.538;2023-07-28T07:09:19;96044.50;;;21.28;63.30
73024;BME280;61199;47.526;8.538;2023-07-28T07:11:46;96043.91;;;21.19;64.12
73024;BME280;61199;47.526;8.538;2023-07-28T07:14:13;96047.41;;;21.13;63.79
73024;BME280;61199;47.526;8.538;2023-07-28T07:16:40;96041.22;;;21.13;63.71
73024;BME280;61199;47.526;8.538;2023-07-28T07:19:07;96042.28;;;21.18;64.28
73024;BME280;61199;47.526;8.538;2023-07-28T07:21:34;96035.91;;;21.19;63.58
73024;BME280;61199;47.526;8.538;2023-07-28T07:24:03;96042.25;;;21.12;63.93
73024;BME280;61199;47.526;8.538;2023-07-28T07:26:30;96040.22;;;21.20;64.33
73024;BME280;61199;47.526;8.538;2023-07-28T07:28:57;96046.16;;;21.22;63.63
73024;BME280;61199;47.526;8.538;2023-07-28T07:31:24;96048.75;;;21.35;63.74
73024;BME280;61199;47.526;8.538;2023-07-28T07:33:51;96046.94;;;21.29;63.47
73024;BME280;61199;47.526;8.538;2023-07-28T07:36:19;96046.50;;;21.39;63.02
73024;BME280;61199;47.526;8.538;2023-07-28T07:38:45;96049.16;;;21.39;63.27
73024;BME280;61199;47.526;8.538;2023-07-28T07:41:13;96057.56;;;21.42;63.18
73024;BME280;61199;47.526;8.538;2023-07-28T07:43:46;96054.66;;;21.50;62.19
73024;BME280;61199;47.526;8.538;2023-07-28T07:46:13;96061.19;;;21.61;61.19
73024;BME280;61199;47.526;8.538;2023-07-28T07:48:40;96059.56;;;21.66;61.62
73024;BME280;61199;47.526;8.538;2023-07-28T07:51:07;96064.06;;;21.72;60.98
73024;BME280;61199;47.526;8.538;2023-07-28T07:53:34;96065.19;;;21.89;60.99
73024;BME280;61199;47.526;8.538;2023-07-28T07:56:03;96067.09;;;21.82;61.18
73024;BME280;61199;47.526;8.538;2023-07-28T07:58:30;96060.84;;;22.01;61.00
73024;BME280;61199;47.526;8.538;2023-07-28T08:00:56;96064.06;;;22.10;59.92
73024;BME280;61199;47.526;8.538;2023-07-28T08:03:23;96063.41;;;22.14;60.11
73024;BME280;61199;47.526;8.538;2023-07-28T08:05:50;96062.34;;;22.22;59.80
73024;BME280;61199;47.526;8.538;2023-07-28T08:08:17;96065.78;;;22.29;59.65
73024;BME280;61199;47.526;8.538;2023-07-28T08:10:46;96056.34;;;22.26;59.62
73024;BME280;61199;47.526;8.538;2023-07-28T08:13:14;96065.38;;;22.32;59.08
73024;BME280;61199;47.526;8.538;2023-07-28T08:15:43;96056.72;;;22.36;59.40
73024;BME280;61199;47.526;8.538;2023-07-28T08:18:11;96058.34;;;22.44;59.61
73024;BME280;61199;47.526;8.538;2023-07-28T08:20:37;96047.00;;;22.48;59.42
73024;BME280;61199;47.526;8.538;2023-07-28T08:23:04;96050.59;;;22.60;59.13
73024;BME280;61199;47.526;8.538;2023-07-28T08:25:30;96046.81;;;22.68;59.07
73024;BME280;61199;47.526;8.538;2023-07-28T08:27:57;96051.09;;;22.75;59.00
73024;BME280;61199;47.526;8.538;2023-07-28T08:30:23;96051.88;;;22.82;58.47
73024;BME280;61199;47.526;8.538;2023-07-28T08:32:50;96056.75;;;22.85;57.73
73024;BME280;61199;47.526;8.538;2023-07-28T08:35:16;96056.91;;;22.90;57.93
73024;BME280;61199;47.526;8.538;2023-07-28T08:37:44;96064.44;;;23.00;57.37
73024;BME280;61199;47.526;8.538;2023-07-28T08:40:11;96060.78;;;22.94;57.65
73024;BME280;61199;47.526;8.538;2023-07-28T08:42:39;96056.22;;;23.01;57.50
73024;BME280;61199;47.526;8.538;2023-07-28T08:45:07;96054.91;;;23.10;57.19
73024;BME280;61199;47.526;8.538;2023-07-28T08:47:37;96049.88;;;23.20;56.68
73024;BME280;61199;47.526;8.538;2023-07-28T08:50:04;96047.47;;;23.12;56.35
73024;BME280;61199;47.526;8.538;2023-07-28T08:52:32;96050.47;;;23.22;56.73
73024;BME280;61199;47.526;8.538;2023-07-28T08:55:00;96048.97;;;23.26;56.56
73024;BME280;61199;47.526;8.538;2023-07-28T08:57:27;96054.50;;;23.31;55.74
73024;BME280;61199;47.526;8.538;2023-07-28T08:59:54;96053.91;;;23.29;54.83
73024;BME280;61199;47.526;8.538;2023-07-28T09:02:21;96053.94;;;23.23;55.72
73024;BME280;61199;47.526;8.538;2023-07-28T09:04:48;96072.00;;;23.27;56.18
73024;BME280;61199;47.526;8.538;2023-07-28T09:07:15;96055.06;;;23.33;55.46
73024;BME280;61199;47.526;8.538;2023-07-28T09:09:41;96053.28;;;23.45;55.35
73024;BME280;61199;47.526;8.538;2023-07-28T09:12:09;96054.78;;;23.41;54.95
73024;BME280;61199;47.526;8.538;2023-07-28T09:14:37;96045.13;;;23.40;55.34
73024;BME280;61199;47.526;8.538;2023-07-28T09:19:34;96060.50;;;23.63;55.90
73024;BME280;61199;47.526;8.538;2023-07-28T09:22:01;96063.03;;;23.58;55.49
73024;BME280;61199;47.526;8.538;2023-07-28T09:24:32;96060.34;;;23.58;55.88
73024;BME280;61199;47.526;8.538;2023-07-28T09:26:59;96054.25;;;23.69;56.54
73024;BME280;61199;47.526;8.538;2023-07-28T09:29:26;96067.31;;;23.77;54.82
73024;BME280;61199;47.526;8.538;2023-07-28T09:32:04;96075.50;;;23.82;55.43
73024;BME280;61199;47.526;8.538;2023-07-28T09:34:31;96068.09;;;23.66;55.06
73024;BME280;61199;47.526;8.538;2023-07-28T09:36:59;96062.97;;;23.64;55.83
73024;BME280;61199;47.526;8.538;2023-07-28T09:39:26;96059.25;;;23.83;55.19
73024;BME280;61199;47.526;8.538;2023-07-28T09:41:54;96052.69;;;23.97;54.93
73024;BME280;61199;47.526;8.538;2023-07-28T09:44:24;96056.59;;;24.13;54.32
73024;BME280;61199;47.526;8.538;2023-07-28T09:46:52;96055.28;;;24.04;55.16
73024;BME280;61199;47.526;8.538;2023-07-28T09:49:22;96046.50;;;24.26;54.72
73024;BME280;61199;47.526;8.538;2023-07-28T09:51:54;96054.69;;;24.31;53.80
73024;BME280;61199;47.526;8.538;2023-07-28T09:54:24;96042.34;;;24.30;54.68
73024;BME280;61199;47.526;8.538;2023-07-28T09:56:56;96030.16;;;24.45;54.58
73024;BME280;61199;47.526;8.538;2023-07-28T09:59:35;96037.44;;;24.56;54.30
73024;BME280;61199;47.526;8.538;2023-07-28T10:02:04;96033.94;;;24.67;53.63
73024;BME280;61199;47.526;8.538;2023-07-28T10:04:32;96035.69;;;24.62;54.16
73024;BME280;61199;47.526;8.538;2023-07-28T10:06:59;96031.75;;;24.76;53.89
73024;BME280;61199;47.526;8.538;2023-07-28T10:09:28;96033.59;;;24.75;54.29
73024;BME280;61199;47.526;8.538;2023-07-28T10:11:56;96029.78;;;24.94;53.13
73024;BME280;61199;47.526;8.538;2023-07-28T10:14:27;96031.31;;;25.02;53.03
73024;BME280;61199;47.526;8.538;2023-07-28T10:16:55;96024.78;;;24.75;52.62
73024;BME280;61199;47.526;8.538;2023-07-28T10:19:24;96025.81;;;24.85;53.53
73024;BME280;61199;47.526;8.538;2023-07-28T10:21:58;96027.66;;;24.73;54.42
73024;BME280;61199;47.526;8.538;2023-07-28T10:25:01;96031.28;;;24.79;54.30
73024;BME280;61199;47.526;8.538;2023-07-28T10:27:35;96033.84;;;24.97;53.37
73024;BME280;61199;47.526;8.538;2023-07-28T10:30:10;96029.31;;;24.97;53.15
73024;BME280;61199;47.526;8.538;2023-07-28T10:32:44;96025.69;;;25.15;52.91
73024;BME280;61199;47.526;8.538;2023-07-28T10:37:39;96025.13;;;24.90;52.70
73024;BME280;61199;47.526;8.538;2023-07-28T10:40:28;96020.81;;;25.12;52.63
73024;BME280;61199;47.526;8.538;2023-07-28T10:42:55;96025.59;;;25.21;52.71
73024;BME280;61199;47.526;8.538;2023-07-28T10:45:23;96020.00;;;25.34;53.12
73024;BME280;61199;47.526;8.538;2023-07-28T10:47:52;96012.53;;;25.48;52.58
73024;BME280;61199;47.526;8.538;2023-07-28T10:50:19;96016.84;;;25.37;51.72
73024;BME280;61199;47.526;8.538;2023-07-28T10:52:46;96004.81;;;25.51;51.48
73024;BME280;61199;47.526;8.538;2023-07-28T10:55:20;96005.34;;;25.65;50.45
73024;BME280;61199;47.526;8.538;2023-07-28T10:57:49;96004.63;;;25.69;50.99
73024;BME280;61199;47.526;8.538;2023-07-28T11:00:17;96015.81;;;25.78;50.89
73024;BME280;61199;47.526;8.538;2023-07-28T11:02:45;96020.06;;;25.62;51.65
73024;BME280;61199;47.526;8.538;2023-07-28T11:05:20;96018.69;;;25.48;51.42
73024;BME280;61199;47.526;8.538;2023-07-28T11:07:47;96027.00;;;25.47;52.15
73024;BME280;61199;47.526;8.538;2023-07-28T11:10:14;96019.19;;;25.34;52.08
73024;BME280;61199;47.526;8.538;2023-07-28T11:12:45;96019.66;;;25.42;52.13
73024;BME280;61199;47.526;8.538;2023-07-28T11:15:13;96020.34;;;25.38;52.21
73024;BME280;61199;47.526;8.538;2023-07-28T11:17:42;96011.34;;;25.32;52.71
73024;BME280;61199;47.526;8.538;2023-07-28T11:20:21;96020.47;;;25.31;51.95
73024;BME280;61199;47.526;8.538;2023-07-28T11:22:59;96008.44;;;25.45;51.91
73024;BME280;61199;47.526;8.538;2023-07-28T11:25:27;96007.44;;;25.63;51.32
73024;BME280;61199;47.526;8.538;2023-07-28T11:27:54;96007.03;;;25.43;51.87
73024;BME280;61199;47.526;8.538;2023-07-28T11:30:24;96005.97;;;25.44;51.49
73024;BME280;61199;47.526;8.538;2023-07-28T11:32:52;96000.72;;;25.49;51.83
73024;BME280;61199;47.526;8.538;2023-07-28T11:35:20;96006.09;;;25.49;51.87
73024;BME280;61199;47.526;8.538;2023-07-28T11:37:51;96004.00;;;25.51;51.16
73024;BME280;61199;47.526;8.538;2023-07-28T11:40:20;96012.97;;;25.45;51.87
73024;BME280;61199;47.526;8.538;2023-07-28T11:42:49;96008.63;;;25.67;51.73
73024;BME280;61199;47.526;8.538;2023-07-28T11:45:18;96013.94;;;25.78;51.50
73024;BME280;61199;47.526;8.538;2023-07-28T11:48:04;96009.50;;;25.44;52.41
73024;BME280;61199;47.526;8.538;2023-07-28T11:50:37;96003.50;;;25.54;52.18
73024;BME280;61199;47.526;8.538;2023-07-28T11:53:04;95993.84;;;25.81;51.50
73024;BME280;61199;47.526;8.538;2023-07-28T11:55:33;95991.13;;;26.04;50.94
73024;BME280;61199;47.526;8.538;2023-07-28T11:58:01;95990.75;;;26.28;50.04
73024;BME280;61199;47.526;8.538;2023-07-28T12:00:31;95989.63;;;26.41;50.06
73024;BME280;61199;47.526;8.538;2023-07-28T12:03:09;95994.72;;;26.54;50.20
73024;BME280;61199;47.526;8.538;2023-07-28T12:05:38;96006.41;;;26.48;50.22
73024;BME280;61199;47.526;8.538;2023-07-28T12:08:33;95995.25;;;26.39;50.12
73024;BME280;61199;47.526;8.538;2023-07-28T12:10:59;96008.25;;;26.31;49.07
73024;BME280;61199;47.526;8.538;2023-07-28T12:13:29;96004.69;;;26.42;49.01
73024;BME280;61199;47.526;8.538;2023-07-28T12:15:58;95994.59;;;26.49;48.85
73024;BME280;61199;47.526;8.538;2023-07-28T12:18:29;95994.88;;;26.64;48.44
73024;BME280;61199;47.526;8.538;2023-07-28T12:20:59;95985.88;;;26.42;48.86
73024;BME280;61199;47.526;8.538;2023-07-28T12:23:26;95992.88;;;26.43;48.81
73024;BME280;61199;47.526;8.538;2023-07-28T12:25:55;96003.50;;;26.21;49.48
73024;BME280;61199;47.526;8.538;2023-07-28T12:28:24;96005.94;;;25.67;50.62
73024;BME280;61199;47.526;8.538;2023-07-28T12:30:52;96008.97;;;25.70;50.88
73024;BME280;61199;47.526;8.538;2023-07-28T12:33:22;96010.28;;;25.56;51.17
73024;BME280;61199;47.526;8.538;2023-07-28T12:35:49;96008.00;;;25.76;51.00
73024;BME280;61199;47.526;8.538;2023-07-28T12:38:17;96008.28;;;26.03;50.57
73024;BME280;61199;47.526;8.538;2023-07-28T12:40:46;96008.66;;;26.23;50.49
73024;BME280;61199;47.526;8.538;2023-07-28T12:43:16;96012.75;;;26.25;49.90
73024;BME280;61199;47.526;8.538;2023-07-28T12:45:45;96011.34;;;25.95;50.43
73024;BME280;61199;47.526;8.538;2023-07-28T12:48:14;96004.41;;;26.10;50.63
73024;BME280;61199;47.526;8.538;2023-07-28T12:50:43;96010.34;;;25.73;50.53
73024;BME280;61199;47.526;8.538;2023-07-28T12:53:10;96004.69;;;25.86;51.30
73024;BME280;61199;47.526;8.538;2023-07-28T12:55:43;96000.63;;;25.95;50.98
73024;BME280;61199;47.526;8.538;2023-07-28T12:58:12;96004.69;;;25.97;51.06
73024;BME280;61199;47.526;8.538;2023-07-28T13:00:42;96003.88;;;25.97;51.34
73024;BME280;61199;47.526;8.538;2023-07-28T13:03:11;96010.53;;;25.83;52.05
73024;BME280;61199;47.526;8.538;2023-07-28T13:05:38;96005.13;;;26.06;51.64
73024;BME280;61199;47.526;8.538;2023-07-28T13:08:04;96007.59;;;26.24;51.22
73024;BME280;61199;47.526;8.538;2023-07-28T13:10:33;96003.97;;;26.46;50.84
73024;BME280;61199;47.526;8.538;2023-07-28T13:13:03;96015.00;;;26.33;50.49
73024;BME280;61199;47.526;8.538;2023-07-28T13:15:29;96002.13;;;26.19;51.09